createdAt,value
2023-05-20T00:07:16.101Z,12.8
2023-05-20T00:17:18.529Z,12.7
2023-05-20T00:27:20.842Z,12.3
2023-05-20T00:37:23.383Z,12.1
2023-05-20T00:47:25.540Z,12.1
2023-05-20T00:57:27.998Z,11.6
2023-05-20T01:07:29.812Z,11.3
2023-05-20T01:17:32.355Z,11.7
2023-05-20T01:27:34.742Z,11.7
2023-05-20T01:37:37.162Z,11.6
2023-05-20T01:47:38.876Z,11.5
2023-05-20T01:57:41.465Z,11.5
2023-05-20T02:07:43.205Z,11.5
2023-05-20T02:17:45.821Z,11.3
2023-05-20T02:27:48.405Z,11.2
2023-05-20T02:37:50.322Z,11.2
2023-05-20T02:47:52.093Z,11.2
2023-05-20T03:07:56.975Z,11
2023-05-20T03:17:59.367Z,10.9
2023-05-20T03:28:01.221Z,10.3
2023-05-20T03:38:03.913Z,10
2023-05-20T03:48:06.071Z,10
2023-05-20T03:58:07.866Z,10.3
2023-05-20T04:08:10.447Z,10.6
2023-05-20T04:18:12.503Z,11.2
2023-05-20T04:28:15.011Z,11.5
2023-05-20T04:38:17.432Z,11.8
2023-05-20T04:48:19.413Z,12.1
2023-05-20T04:58:21.631Z,12.4
2023-05-20T05:08:23.634Z,12.8
2023-05-20T05:18:25.827Z,13.2
2023-05-20T05:28:27.932Z,14
2023-05-20T05:38:30.029Z,14.2
2023-05-20T05:48:32.005Z,14.4
2023-05-20T05:58:34.434Z,14.8
2023-05-20T06:08:36.373Z,15.2
2023-05-20T06:18:38.237Z,15.7
2023-05-20T06:28:40.348Z,15.9
2023-05-20T06:38:42.236Z,16.2
2023-05-20T06:48:44.150Z,15.9
2023-05-20T06:58:46.791Z,14.9
2023-05-20T07:08:49.071Z,14.6
2023-05-20T07:18:51.241Z,14.4
2023-05-20T07:28:53.169Z,14.3
2023-05-20T07:39:02.272Z,14.2
2023-05-20T07:48:57.385Z,14
2023-05-20T07:58:59.585Z,14.1
2023-05-20T08:09:01.172Z,14.3
2023-05-20T08:19:03.635Z,14.5
2023-05-20T08:39:07.857Z,14.7
2023-05-20T08:49:10.026Z,14.9
2023-05-20T08:59:12.355Z,14.7
2023-05-20T09:09:14.846Z,14.6
2023-05-20T09:19:17.278Z,14.8
2023-05-20T09:29:19.683Z,14.9
2023-05-20T09:39:22.327Z,15.1
2023-05-20T09:49:32.030Z,15.3
2023-05-20T09:59:34.085Z,15.6
2023-05-20T10:09:36.474Z,15.7
2023-05-20T10:19:38.631Z,16
2023-05-20T10:29:41.202Z,16.4
2023-05-20T10:39:43.810Z,16.8
2023-05-20T10:49:45.708Z,17.5
2023-05-20T10:59:48.307Z,17.6
2023-05-20T11:09:50.326Z,17.9
2023-05-20T11:19:52.628Z,18
2023-05-20T11:39:56.897Z,18.3
2023-05-20T11:49:59.454Z,18.4
2023-05-20T12:00:01.443Z,18.8
2023-05-20T12:10:03.925Z,18.9
2023-05-20T12:20:06.384Z,19.2
2023-05-20T12:30:08.100Z,18.8
2023-05-20T12:40:10.011Z,19
2023-05-20T12:50:12.192Z,19
2023-05-20T13:00:14.848Z,18.9
2023-05-20T13:10:17.263Z,19.3
2023-05-20T13:20:20.029Z,19.3
2023-05-20T13:30:21.902Z,19.6
2023-05-20T13:40:23.853Z,19.4
2023-05-20T13:50:25.997Z,19.1
2023-05-20T14:00:28.121Z,18.9
2023-05-20T14:10:29.797Z,18.9
2023-05-20T14:30:34.414Z,18.5
2023-05-20T14:40:36.022Z,18.8
2023-05-20T14:50:38.269Z,19.3
2023-05-20T15:00:40.164Z,18.8
2023-05-20T15:10:41.990Z,18.6
2023-05-20T15:20:44.340Z,18.7
2023-05-20T15:30:46.575Z,18.5
2023-05-20T15:40:48.295Z,18.3
2023-05-20T15:50:50.837Z,18.1
2023-05-20T16:00:53.396Z,18
2023-05-20T16:10:55.275Z,17.9
2023-05-20T16:20:57.519Z,17.7
2023-05-20T16:30:59.264Z,17.6
2023-05-20T16:41:01.181Z,17.6
2023-05-20T16:51:03.191Z,17.5
2023-05-20T17:01:05.570Z,17.5
2023-05-20T17:21:09.221Z,17.3
2023-05-20T17:31:11.077Z,17.3
2023-05-20T17:41:13.255Z,17.2
2023-05-20T17:51:15.464Z,17.1
2023-05-20T18:01:18.060Z,17.1
2023-05-20T18:11:20.530Z,17
2023-05-20T18:21:22.281Z,17
2023-05-20T18:31:24.174Z,16.9
2023-05-20T18:41:32.306Z,16.7
2023-05-20T18:51:28.649Z,16.5
2023-05-20T19:01:31.147Z,16.4
2023-05-20T19:21:35.152Z,16.1
2023-05-20T19:31:37.714Z,16.1
2023-05-20T19:41:40.038Z,16
2023-05-20T19:51:42.011Z,16
2023-05-20T20:01:44.552Z,15.9
2023-05-20T20:11:46.938Z,15.9
2023-05-20T20:21:49.266Z,15.8
2023-05-20T20:41:54.117Z,15.7
2023-05-20T21:01:58.547Z,15.5
2023-05-20T21:12:01.006Z,15.4
2023-05-20T21:22:03.372Z,15.3
2023-05-20T21:32:05.736Z,15.2
2023-05-20T21:42:08.109Z,15.1
2023-05-20T21:52:10.413Z,14.9
2023-05-20T22:02:12.391Z,14.8
2023-05-20T22:12:14.336Z,14.7
2023-05-20T22:22:16.205Z,14.6
2023-05-20T22:32:18.154Z,14.6
2023-05-20T22:42:20.406Z,14.5
2023-05-20T22:52:22.917Z,14.4
2023-05-20T23:02:24.600Z,14.3
2023-05-20T23:12:27.262Z,14.2
2023-05-20T23:22:29.259Z,14
2023-05-20T23:32:30.993Z,13.9
2023-05-20T23:42:33.021Z,13.7
2023-05-20T23:52:35.615Z,13.6
